Airfield :
LOGIN :

Register | Disclaimer

   EN    FR    IT 

 










Legend :    VFR   Marginal VFR   IFR   Intensive IFR   Very Intensive IFR
Visi :
Ceiling :
>= 8 km
>= 3000ft
5 to 8 km
1000 to 3000 ft
1500m to 5 km
500 to 1000 ft
800 to 1500m
200 to 500 ft
< 800m
< 200 ft
Symbols :   Thunderstorms  Fog  Heavy snow  Heavy precipitations  Wind > 20 kt
SIGMETs :     Misc.  Thunderstorms  Icing  Turbulence  Mountain Waves  Volcanic Ashes






- Airport Elevation : 117 ft
- IATA code : NWI


EGSH - Norwich

CURRENT METAR :
  • 240550Z 25005KT 7000 SCT006 BKN013 06/05 Q1022

EXPIRED METARs :
  • 240520Z AUTO 23003KT 5000 BR SCT002/// BKN006/// BKN009/// 06/05 Q1022
  • 240450Z AUTO 23003KT 4500 BR BKN003/// OVC007/// 06/05 Q1023
  • 240420Z AUTO 22004KT 190V260 6000 SCT003/// BKN007/// OVC010/// 06/05 Q1023
  • 240350Z AUTO 25003KT 5000 BR SCT004/// BKN007/// OVC011/// 06/05 Q1023
  • 240320Z AUTO 25004KT 6000 SCT004/// OVC008/// 06/05 Q1023

TAF TAF EGSH
Valid from the 24 at 06:00 until the 24 at 15:00 UTC


240508Z 2406/2415 22004KT 7000 SCT003 BKN008
TEMPO 2406/2412 2000 BR BKN003
BECMG 2412/2415 BKN012
PROB30
TEMPO 2412/2415 9999
ATIS : +44 1603 420 640



MET'MAP, your aeronautical weather chart ! - Copyright ORBIFLY December 2007 - Disclaimer

ORBIFLY MET'MAP TEAM :

Programming & Development : Alexandra Zaïnal
Concept & original design : Baudouin d'Aumeries
Assistance for programming : Marc-Olivier Méhu
Technical & hardware support : Manuel Goepfert

Contact : metmap@orbifly.com




SOURCES & CREDITS :

   NOAA